AerodromSadržaj METAR izveštaja
LYBEMETAR LYBE 201630Z 34003KT CAVOK 06/00 Q1024 NOSIG=
LYBTMETAR COR LYBT 201630Z 30004KT 270V330 CAVOK 06/00 Q1024 NOSIG=
LYKVMETAR LYKV 201630Z 29004KT 9999 FEW036 SCT043 04/04 Q1024 NOSIG=
LYNIMETAR LYNI 201630Z 32010KT 9999 FEW028 SCT043 05/00 Q1022 NOSIG=
LYVRMETAR LYVR 201630Z 34006KT 9999 BKN040 05/01 Q1023 NOSIG=
LYUZMETAR LYUZ 201630Z 32006KT 270V040 9999 BKN023 01/M04 Q1021=
LYPGMETAR LYPG 201630Z 02021KT 9999 FEW050 10/M09 Q1020 NOSIG=
LYTVMETAR LYTV 201630Z 36013G24KT CAVOK 11/M09 Q1020 NOSIG=

Podaci učitani u: 2020-02-20 16:47:42 UTC

METAR, TAF, AIRMET, GAMET, SIGMET

Važna napomena: MET infоrmаciје nа оvim web strаnicаmа imајu infоrmаtivni kаrаktеr, nаmenjene su isključivo vаzduhоplоvnim kоrisnicima, nе smејu sе kоristiti zа bilо kоје kоmеrciјаlnе svrhе, i nе zаmеnjuјu dоkumеntаciјu zа lеt.